Time;durP1;ratioP1;P1;durP2;ratioP2;P2;SDS_P1;SDS_P2;PMS_P1;PMS_P2;Temp;Humidity;BMP_temperature;BMP_pressure;BME280_temperature;BME280_humidity;BME280_pressure;Samples;Min_cycle;Max_cycle;Signal;HPM_P1;HPM_P2
2021/01/14 00:00:52;;;;;;;7.68;1.25;;;3.30;71.10;;;;;;5045413;28;20506;-79
2021/01/14 00:03:18;;;;;;;7.28;1.48;;;3.30;70.90;;;;;;5076058;28;20028;-79
2021/01/14 00:05:44;;;;;;;8.77;1.30;;;3.30;70.80;;;;;;5057571;28;20108;-79
2021/01/14 00:08:10;;;;;;;6.88;1.55;;;3.30;70.40;;;;;;5049327;28;20039;-80
2021/01/14 00:10:37;;;;;;;9.60;2.17;;;3.30;70.40;;;;;;5063594;28;20050;-79
2021/01/14 00:13:07;;;;;;;9.90;1.95;;;3.40;70.80;;;;;;5065113;28;20045;-80
2021/01/14 00:15:34;;;;;;;9.93;1.67;;;3.40;71.00;;;;;;5077687;28;20040;-78
2021/01/14 00:17:59;;;;;;;10.27;1.42;;;3.50;71.50;;;;;;5074886;28;20056;-79
2021/01/14 00:20:26;;;;;;;9.73;1.85;;;3.50;72.00;;;;;;5023222;28;20067;-78
2021/01/14 00:22:52;;;;;;;9.43;1.77;;;3.50;71.90;;;;;;5062453;28;20039;-78
2021/01/14 00:25:18;;;;;;;11.82;2.00;;;3.60;71.70;;;;;;5064901;28;20036;-78
2021/01/14 00:27:44;;;;;;;14.02;1.48;;;3.50;71.60;;;;;;5078809;28;20037;-78
2021/01/14 00:30:17;;;;;;;8.70;1.23;;;3.50;72.10;;;;;;5079739;28;20035;-78
2021/01/14 00:32:43;;;;;;;3.97;1.02;;;3.40;71.40;;;;;;5067410;28;20391;-78
2021/01/14 00:35:09;;;;;;;4.10;1.00;;;3.40;70.70;;;;;;5064992;28;20047;-79
2021/01/14 00:37:51;;;;;;;5.90;1.20;;;3.40;70.20;;;;;;5062202;28;20037;-79
2021/01/14 00:40:34;;;;;;;6.55;1.23;;;3.40;70.00;;;;;;5076905;28;20056;-79
2021/01/14 00:43:06;;;;;;;10.27;1.48;;;3.40;70.10;;;;;;5078868;28;20036;-79
2021/01/14 00:45:33;;;;;;;7.07;1.17;;;3.30;70.50;;;;;;5083465;28;20038;-79
2021/01/14 00:48:00;;;;;;;14.68;1.75;;;3.30;70.80;;;;;;5048940;28;20067;-79
2021/01/14 00:50:27;;;;;;;12.32;1.88;;;3.30;71.20;;;;;;5062550;28;20040;-80
2021/01/14 00:52:53;;;;;;;12.60;1.45;;;3.30;71.50;;;;;;5063990;28;20103;-79
2021/01/14 00:55:20;;;;;;;8.90;1.38;;;3.30;71.00;;;;;;5078902;28;20064;-80
2021/01/14 00:57:46;;;;;;;6.90;1.30;;;3.40;70.10;;;;;;5044908;28;20114;-79
2021/01/14 01:00:20;;;;;;;9.98;1.50;;;3.30;69.70;;;;;;5080603;28;20124;-79
2021/01/14 01:02:51;;;;;;;5.55;0.90;;;3.30;69.70;;;;;;5065688;28;20036;-81
2021/01/14 01:05:18;;;;;;;8.32;1.38;;;3.30;69.60;;;;;;5068447;28;20040;-80
2021/01/14 01:07:59;;;;;;;9.63;1.90;;;3.30;70.10;;;;;;5046725;28;20032;-81
2021/01/14 01:10:26;;;;;;;5.78;1.30;;;3.40;71.10;;;;;;5081976;28;20440;-81
2021/01/14 01:12:54;;;;;;;10.93;1.83;;;3.40;71.80;;;;;;5062640;28;20032;-81
2021/01/14 01:15:20;;;;;;;10.55;1.38;;;3.40;71.90;;;;;;5083519;28;20112;-80
2021/01/14 01:17:47;;;;;;;9.63;1.20;;;3.30;72.00;;;;;;5068504;28;20070;-81
2021/01/14 01:20:13;;;;;;;8.57;1.88;;;3.30;72.30;;;;;;5066505;28;20044;-81
2021/01/14 01:22:39;;;;;;;11.02;1.33;;;3.20;72.60;;;;;;5051659;28;20106;-81
2021/01/14 01:25:05;;;;;;;3.58;1.52;;;3.20;73.00;;;;;;5064552;28;20040;-82
2021/01/14 01:27:31;;;;;;;5.93;0.95;;;3.20;73.40;;;;;;5065226;28;20036;-82
2021/01/14 01:29:57;;;;;;;10.73;1.70;;;3.10;73.70;;;;;;5066624;28;20669;-80
2021/01/14 01:32:22;;;;;;;7.10;1.15;;;3.10;73.90;;;;;;5081523;28;20032;-81
2021/01/14 01:34:48;;;;;;;7.88;1.50;;;3.10;73.70;;;;;;5062102;28;20060;-81
2021/01/14 01:37:14;;;;;;;9.27;1.05;;;3.00;73.80;;;;;;5049105;28;20032;-81
2021/01/14 01:39:40;;;;;;;8.18;1.50;;;3.00;74.40;;;;;;5078834;28;20086;-81
2021/01/14 01:42:05;;;;;;;9.93;1.17;;;2.90;74.10;;;;;;5080287;28;20407;-81
2021/01/14 01:44:32;;;;;;;10.68;1.40;;;2.90;74.40;;;;;;5035399;28;20043;-82
2021/01/14 01:47:07;;;;;;;10.70;2.45;;;2.90;74.50;;;;;;5046627;28;20037;-81
2021/01/14 01:49:38;;;;;;;11.98;2.00;;;2.80;74.70;;;;;;5078454;28;20121;-81
2021/01/14 01:52:06;;;;;;;9.65;1.83;;;2.80;74.50;;;;;;5064266;28;20054;-81
2021/01/14 01:54:33;;;;;;;11.02;1.30;;;2.80;74.60;;;;;;5059873;28;20041;-81
2021/01/14 01:57:01;;;;;;;7.60;1.20;;;2.70;74.40;;;;;;5044924;28;20036;-74
2021/01/14 01:59:29;;;;;;;5.55;1.10;;;2.70;74.60;;;;;;5040318;28;20044;-74
2021/01/14 02:01:55;;;;;;;9.15;1.05;;;2.70;74.70;;;;;;5048560;28;20116;-74
2021/01/14 02:04:21;;;;;;;11.20;1.92;;;2.70;74.80;;;;;;5055077;28;20679;-74
2021/01/14 02:06:57;;;;;;;9.07;1.55;;;2.60;75.00;;;;;;5048169;28;20040;-74
2021/01/14 02:09:24;;;;;;;8.73;1.20;;;2.60;75.10;;;;;;5061649;28;20442;-74
2021/01/14 02:12:02;;;;;;;5.43;2.17;;;2.60;75.20;;;;;;5073026;28;20476;-74
2021/01/14 02:14:29;;;;;;;12.10;1.70;;;2.60;75.60;;;;;;5072499;28;20042;-74
2021/01/14 02:16:56;;;;;;;8.57;1.30;;;2.50;75.60;;;;;;5044481;28;20063;-74
2021/01/14 02:19:26;;;;;;;6.30;1.45;;;2.60;75.60;;;;;;5058693;28;20040;-74
2021/01/14 02:21:57;;;;;;;7.32;1.40;;;2.60;75.60;;;;;;5064899;28;20044;-74
2021/01/14 02:24:41;;;;;;;4.60;1.08;;;2.60;75.30;;;;;;5071111;28;20041;-74
2021/01/14 02:27:09;;;;;;;10.88;1.85;;;2.60;74.50;;;;;;5060175;28;20040;-74
2021/01/14 02:29:38;;;;;;;6.07;1.35;;;2.60;74.30;;;;;;5070548;28;20036;-74
2021/01/14 02:32:14;;;;;;;12.50;1.60;;;2.60;73.80;;;;;;5058705;28;20057;-74
2021/01/14 02:34:40;;;;;;;7.82;1.73;;;2.70;73.70;;;;;;5058637;28;20043;-74
2021/01/14 02:37:06;;;;;;;8.63;1.15;;;2.70;73.90;;;;;;5068533;28;20025;-74
2021/01/14 02:39:31;;;;;;;15.85;1.70;;;2.70;74.00;;;;;;5059446;28;20041;-75
2021/01/14 02:41:57;;;;;;;8.27;1.33;;;2.70;74.10;;;;;;5056595;28;20037;-74
2021/01/14 02:44:23;;;;;;;9.07;1.42;;;2.70;74.20;;;;;;5069872;28;20067;-74
2021/01/14 02:46:49;;;;;;;4.00;1.27;;;2.70;74.20;;;;;;5054789;28;20044;-74
2021/01/14 02:49:15;;;;;;;9.52;1.30;;;2.60;74.40;;;;;;5061231;28;20071;-74
2021/01/14 02:51:47;;;;;;;7.75;1.40;;;2.70;74.80;;;;;;5055592;28;20105;-74
2021/01/14 02:54:15;;;;;;;12.30;2.35;;;2.60;74.90;;;;;;5071156;28;20052;-74
2021/01/14 02:56:41;;;;;;;6.80;1.40;;;2.50;75.00;;;;;;5041270;28;20044;-74
2021/01/14 02:59:09;;;;;;;5.20;1.35;;;2.50;75.10;;;;;;5059035;28;20111;-74
2021/01/14 03:01:35;;;;;;;12.10;1.60;;;2.40;75.10;;;;;;5056643;28;20435;-74
2021/01/14 03:04:01;;;;;;;6.28;1.60;;;2.40;75.30;;;;;;5052236;28;20159;-74
2021/01/14 03:06:27;;;;;;;10.13;1.50;;;2.40;75.40;;;;;;5057576;28;20051;-74
2021/01/14 03:08:53;;;;;;;6.80;1.48;;;2.40;75.40;;;;;;5046113;28;20036;-74
2021/01/14 03:11:31;;;;;;;8.45;1.55;;;2.30;75.50;;;;;;5046388;28;20044;-74
2021/01/14 03:13:57;;;;;;;4.95;1.52;;;2.30;75.60;;;;;;5053497;28;20040;-74
2021/01/14 03:16:24;;;;;;;11.32;1.90;;;2.30;75.60;;;;;;5056954;28;20041;-74
2021/01/14 03:18:50;;;;;;;6.63;1.60;;;2.30;75.50;;;;;;5071438;28;20468;-74
2021/01/14 03:21:18;;;;;;;7.22;1.15;;;2.30;75.50;;;;;;5042871;28;20488;-74
2021/01/14 03:23:44;;;;;;;6.85;1.33;;;2.20;75.50;;;;;;5028483;28;20044;-81
2021/01/14 03:26:12;;;;;;;3.97;1.15;;;2.20;75.50;;;;;;5058051;28;20042;-81
2021/01/14 03:28:38;;;;;;;7.43;1.55;;;2.20;75.50;;;;;;5057759;28;20115;-81
2021/01/14 03:31:04;;;;;;;5.10;1.50;;;2.10;75.40;;;;;;5074688;28;20044;-81
2021/01/14 03:33:30;;;;;;;5.63;1.65;;;2.10;75.50;;;;;;5073089;28;20086;-81
2021/01/14 03:35:56;;;;;;;8.27;1.67;;;2.10;75.60;;;;;;5057521;28;20068;-82
2021/01/14 03:38:22;;;;;;;11.80;2.15;;;2.00;75.70;;;;;;5061460;28;20037;-81
2021/01/14 03:40:48;;;;;;;5.25;1.70;;;2.00;75.70;;;;;;5076046;28;20038;-81
2021/01/14 03:43:13;;;;;;;4.10;1.73;;;2.00;75.70;;;;;;5047842;28;20058;-81
2021/01/14 03:45:39;;;;;;;5.10;1.42;;;1.90;75.70;;;;;;5074621;28;20069;-81
2021/01/14 03:48:06;;;;;;;6.05;1.77;;;1.90;75.70;;;;;;5057947;28;20044;-82
2021/01/14 03:50:32;;;;;;;6.47;1.63;;;1.90;75.70;;;;;;5061669;28;20063;-81
2021/01/14 03:52:58;;;;;;;6.82;1.50;;;1.90;75.70;;;;;;5040825;28;20075;-81
2021/01/14 03:55:25;;;;;;;7.03;1.88;;;1.90;75.70;;;;;;5049522;28;20455;-81
2021/01/14 03:57:51;;;;;;;10.27;2.47;;;1.90;75.80;;;;;;5059401;28;20230;-81
2021/01/14 04:00:17;;;;;;;7.95;1.73;;;1.80;75.90;;;;;;5055495;28;20496;-81
2021/01/14 04:02:43;;;;;;;5.82;1.75;;;1.80;76.00;;;;;;5056900;28;20041;-81
2021/01/14 04:05:11;;;;;;;7.68;1.80;;;1.80;76.00;;;;;;5056956;28;20103;-80
2021/01/14 04:07:37;;;;;;;8.75;1.70;;;1.80;76.10;;;;;;5057904;28;20075;-81
2021/01/14 04:10:03;;;;;;;4.20;1.67;;;1.80;76.20;;;;;;5066028;28;20037;-80
2021/01/14 04:12:29;;;;;;;7.72;2.10;;;1.80;76.30;;;;;;5060590;28;20036;-80
2021/01/14 04:14:58;;;;;;;9.38;2.00;;;1.80;76.40;;;;;;5062674;28;20029;-80
2021/01/14 04:17:26;;;;;;;7.88;2.92;;;1.70;76.50;;;;;;5057577;28;20593;-80
2021/01/14 04:19:51;;;;;;;8.63;3.17;;;1.80;76.80;;;;;;5042609;28;20036;-80
2021/01/14 04:22:18;;;;;;;9.95;2.78;;;1.80;77.00;;;;;;5058385;28;20040;-80
2021/01/14 04:24:44;;;;;;;8.52;1.80;;;1.80;77.00;;;;;;5043790;28;20431;-80
2021/01/14 04:27:10;;;;;;;7.43;2.08;;;1.80;76.90;;;;;;5056920;28;20033;-80
2021/01/14 04:29:36;;;;;;;9.75;2.33;;;1.90;76.90;;;;;;5056656;28;20052;-74
2021/01/14 04:32:02;;;;;;;9.63;1.95;;;1.90;76.80;;;;;;5052881;28;20028;-74
2021/01/14 04:34:28;;;;;;;8.60;1.87;;;2.00;77.00;;;;;;5049230;28;20059;-74
2021/01/14 04:37:02;;;;;;;5.70;2.10;;;2.00;76.90;;;;;;5031195;28;20033;-74
2021/01/14 04:39:29;;;;;;;9.05;2.22;;;2.10;76.90;;;;;;5053106;28;20511;-74
2021/01/14 04:41:59;;;;;;;8.43;3.05;;;2.10;76.90;;;;;;5041049;28;20032;-74
2021/01/14 04:44:27;;;;;;;8.80;2.80;;;2.30;76.90;;;;;;5039631;28;20119;-74
2021/01/14 04:47:13;;;;;;;12.90;3.13;;;2.30;76.80;;;;;;5039474;28;20580;-74
2021/01/14 04:49:41;;;;;;;11.13;2.70;;;2.40;76.70;;;;;;5034853;28;20053;-74
2021/01/14 04:52:15;;;;;;;11.85;2.58;;;2.40;76.70;;;;;;5055398;28;20115;-81
2021/01/14 04:54:43;;;;;;;11.20;2.30;;;2.40;76.50;;;;;;5056630;28;20061;-80
2021/01/14 04:57:18;;;;;;;7.13;2.03;;;2.40;76.50;;;;;;5042231;28;20087;-81
2021/01/14 05:00:03;;;;;;;9.25;2.30;;;2.40;76.50;;;;;;5058923;28;20056;-81
2021/01/14 05:02:38;;;;;;;7.00;2.38;;;2.40;76.60;;;;;;5059009;28;20060;-81
2021/01/14 05:05:10;;;;;;;10.93;2.65;;;2.40;76.70;;;;;;5045929;28;20043;-80
2021/01/14 05:07:46;;;;;;;7.88;2.42;;;2.30;76.80;;;;;;5042897;28;20496;-81
2021/01/14 05:10:19;;;;;;;8.63;2.30;;;2.30;76.90;;;;;;5042638;28;20060;-81
2021/01/14 05:12:45;;;;;;;9.10;2.80;;;2.30;77.00;;;;;;5047088;28;20033;-81
2021/01/14 05:15:15;;;;;;;7.15;2.42;;;2.30;76.90;;;;;;5039304;28;20045;-74
2021/01/14 05:17:41;;;;;;;9.38;2.53;;;2.30;76.90;;;;;;5040454;28;20496;-81
2021/01/14 05:20:07;;;;;;;7.07;2.55;;;2.30;76.90;;;;;;5044369;28;20067;-80
2021/01/14 05:22:38;;;;;;;8.25;2.83;;;2.30;76.80;;;;;;5049601;28;20095;-80
2021/01/14 05:25:08;;;;;;;12.15;2.97;;;2.30;76.80;;;;;;5054539;28;20083;-80
2021/01/14 05:27:34;;;;;;;6.18;2.65;;;2.20;76.70;;;;;;5039586;28;20485;-80
2021/01/14 05:30:05;;;;;;;9.10;2.58;;;2.20;76.80;;;;;;5058593;28;20033;-80
2021/01/14 05:32:39;;;;;;;7.65;2.42;;;2.10;76.90;;;;;;5041584;28;20086;-74
2021/01/14 05:35:07;;;;;;;10.10;3.17;;;2.00;76.90;;;;;;5041885;28;20133;-74
2021/01/14 05:37:35;;;;;;;9.48;2.88;;;2.00;77.00;;;;;;5050562;28;20045;-74
2021/01/14 05:40:03;;;;;;;5.45;2.65;;;1.90;77.00;;;;;;5024115;28;20036;-75
2021/01/14 05:42:29;;;;;;;10.70;3.08;;;1.90;77.10;;;;;;5053133;28;20131;-74
2021/01/14 05:44:55;;;;;;;8.32;2.78;;;1.80;77.10;;;;;;5053049;28;20991;-75
2021/01/14 05:47:23;;;;;;;8.45;3.13;;;1.80;77.40;;;;;;5036501;28;20032;-75
2021/01/14 05:49:58;;;;;;;7.78;2.72;;;1.70;77.50;;;;;;5059516;28;20037;-75
2021/01/14 05:52:25;;;;;;;10.32;3.17;;;1.70;77.60;;;;;;5072556;28;20052;-75
2021/01/14 05:55:05;;;;;;;17.63;3.30;;;1.70;77.60;;;;;;5062886;28;20028;-75
2021/01/14 05:57:33;;;;;;;9.10;3.28;;;1.60;77.60;;;;;;5072603;28;20068;-75
2021/01/14 06:00:07;;;;;;;7.93;3.58;;;1.60;77.60;;;;;;5071938;28;20069;-75
2021/01/14 06:02:33;;;;;;;14.40;3.00;;;1.60;77.50;;;;;;5054964;28;20044;-75
2021/01/14 06:04:59;;;;;;;9.38;3.10;;;1.60;77.50;;;;;;5071281;28;20059;-75
2021/01/14 06:07:39;;;;;;;11.13;3.85;;;1.50;77.50;;;;;;5071311;28;20037;-75
2021/01/14 06:10:06;;;;;;;11.15;3.28;;;1.50;77.50;;;;;;5071899;28;20060;-75
2021/01/14 06:12:32;;;;;;;10.15;3.08;;;1.50;77.60;;;;;;5044196;28;20441;-75
2021/01/14 06:14:58;;;;;;;9.32;3.97;;;1.50;77.70;;;;;;5060844;28;20106;-75
2021/01/14 06:17:33;;;;;;;8.55;2.88;;;1.50;78.20;;;;;;5043653;28;20468;-75
2021/01/14 06:20:09;;;;;;;7.40;3.30;;;1.50;77.80;;;;;;5070704;28;20032;-75
2021/01/14 06:22:36;;;;;;;12.80;3.85;;;1.60;77.80;;;;;;5071814;28;20040;-75
2021/01/14 06:25:04;;;;;;;13.32;3.45;;;1.60;77.90;;;;;;5058907;28;20036;-75
2021/01/14 06:27:31;;;;;;;7.78;3.58;;;1.60;77.90;;;;;;5071110;28;20130;-75
2021/01/14 06:30:08;;;;;;;12.05;3.30;;;1.60;77.90;;;;;;5070033;28;20032;-75
2021/01/14 06:32:37;;;;;;;7.60;3.17;;;1.60;78.00;;;;;;5072141;28;21471;-75
2021/01/14 06:35:05;;;;;;;8.52;3.63;;;1.70;78.10;;;;;;5072115;28;20128;-75
2021/01/14 06:37:38;;;;;;;11.70;3.75;;;1.70;78.20;;;;;;5058847;28;20028;-76
2021/01/14 06:40:07;;;;;;;6.70;3.42;;;1.70;78.20;;;;;;5071453;28;20051;-75
2021/01/14 06:42:37;;;;;;;9.13;4.38;;;1.80;78.10;;;;;;5060947;28;20039;-75
2021/01/14 06:45:08;;;;;;;11.07;3.50;;;1.80;78.50;;;;;;5061080;28;20388;-75
2021/01/14 06:47:41;;;;;;;6.35;3.13;;;1.80;78.00;;;;;;5041603;28;20148;-75
2021/01/14 06:50:16;;;;;;;12.50;3.65;;;1.80;77.90;;;;;;5059960;28;20040;-75
2021/01/14 06:52:53;;;;;;;8.23;4.20;;;1.80;77.90;;;;;;5057012;28;20080;-75
2021/01/14 06:55:23;;;;;;;9.07;3.80;;;1.90;77.90;;;;;;5071726;28;20093;-75
2021/01/14 06:58:12;;;;;;;10.68;3.20;;;1.90;77.80;;;;;;5070853;28;20068;-75
2021/01/14 07:00:42;;;;;;;8.35;3.50;;;1.90;77.90;;;;;;5059288;28;20510;-75
2021/01/14 07:03:20;;;;;;;9.70;3.50;;;2.00;78.00;;;;;;5059345;28;20507;-75
2021/01/14 07:05:52;;;;;;;7.60;3.88;;;2.00;77.90;;;;;;5070775;28;20043;-75
2021/01/14 07:08:41;;;;;;;9.95;3.85;;;2.10;77.90;;;;;;5058052;28;20159;-75
2021/01/14 07:11:12;;;;;;;10.27;3.95;;;2.20;77.90;;;;;;5070865;28;20036;-75
2021/01/14 07:13:40;;;;;;;12.07;4.00;;;2.20;77.80;;;;;;5058808;28;20115;-75
2021/01/14 07:16:08;;;;;;;11.40;3.65;;;2.30;77.80;;;;;;5070581;28;20043;-75
2021/01/14 07:18:35;;;;;;;12.60;3.40;;;2.30;77.70;;;;;;5070664;28;20086;-74
2021/01/14 07:21:29;;;;;;;8.88;3.45;;;2.30;77.70;;;;;;5055013;28;20040;-76
2021/01/14 07:24:29;;;;;;;11.73;3.78;;;2.40;77.60;;;;;;5055544;28;20089;-77
2021/01/14 07:27:02;;;;;;;10.77;3.20;;;2.30;77.50;;;;;;5056714;28;20395;-76
2021/01/14 07:29:29;;;;;;;9.55;3.40;;;2.30;77.60;;;;;;5070640;28;20043;-76
2021/01/14 07:31:58;;;;;;;15.93;4.55;;;2.30;77.60;;;;;;5051557;28;20040;-77
2021/01/14 07:34:42;;;;;;;10.52;3.53;;;2.30;77.70;;;;;;5055464;28;20109;-76
2021/01/14 07:37:11;;;;;;;9.57;3.70;;;2.20;77.70;;;;;;5061236;28;20093;-83
2021/01/14 07:39:56;;;;;;;10.88;3.65;;;2.20;77.80;;;;;;5077400;28;20039;-86
2021/01/14 07:42:33;;;;;;;8.95;2.88;;;2.20;77.80;;;;;;5061767;28;20127;-84
2021/01/14 07:45:01;;;;;;;11.75;3.35;;;2.20;77.80;;;;;;5065263;28;20042;-83
2021/01/14 07:47:28;;;;;;;12.90;3.60;;;2.10;77.80;;;;;;5079730;28;20050;-86
2021/01/14 07:49:54;;;;;;;12.30;4.13;;;2.10;77.90;;;;;;5076518;28;20036;-84
2021/01/14 07:52:47;;;;;;;9.73;3.10;;;2.10;78.00;;;;;;5072476;28;20036;-84
2021/01/14 07:55:27;;;;;;;11.45;3.40;;;2.10;78.10;;;;;;5068500;28;22393;-84
2021/01/14 07:58:19;;;;;;;7.90;3.45;;;2.10;78.10;;;;;;5071699;28;20086;-84
2021/01/14 08:01:08;;;;;;;10.10;4.45;;;2.10;78.10;;;;;;5042041;28;20040;-85
2021/01/14 08:03:42;;;;;;;13.25;4.78;;;2.10;78.10;;;;;;5077721;28;20033;-85
2021/01/14 08:06:17;;;;;;;11.85;4.28;;;2.10;78.10;;;;;;5078123;28;20507;-84
2021/01/14 08:08:57;;;;;;;9.38;3.60;;;2.00;78.10;;;;;;5077172;28;20107;-85
2021/01/14 08:11:24;;;;;;;10.13;3.30;;;2.00;78.20;;;;;;5080691;28;20130;-85
2021/01/14 08:14:22;;;;;;;8.73;4.10;;;2.00;78.10;;;;;;5063574;28;20472;-85
2021/01/14 08:16:47;;;;;;;10.65;3.85;;;2.00;78.30;;;;;;5072006;28;20089;-77
2021/01/14 08:19:17;;;;;;;16.70;4.10;;;2.00;78.20;;;;;;5041695;28;20040;-87
2021/01/14 08:22:10;;;;;;;8.27;3.97;;;2.00;78.30;;;;;;5056847;28;20040;-83
2021/01/14 08:24:37;;;;;;;15.32;3.78;;;2.00;78.30;;;;;;5047398;28;20048;-85
2021/01/14 08:27:06;;;;;;;9.93;3.55;;;2.00;78.30;;;;;;5072312;28;20036;-85
2021/01/14 08:29:34;;;;;;;12.00;3.65;;;1.90;78.20;;;;;;5074615;28;20060;-85
2021/01/14 08:32:00;;;;;;;11.63;4.22;;;1.90;78.10;;;;;;5070767;28;20029;-85
2021/01/14 08:34:26;;;;;;;12.35;3.80;;;2.00;78.40;;;;;;5055641;28;20044;-82
2021/01/14 08:36:54;;;;;;;10.73;3.55;;;1.90;78.40;;;;;;5058904;28;20044;-81
2021/01/14 08:39:25;;;;;;;11.50;3.47;;;1.90;78.40;;;;;;5071927;28;20036;-82
2021/01/14 08:41:52;;;;;;;9.93;3.80;;;1.90;78.30;;;;;;5072051;28;20113;-83
2021/01/14 08:44:28;;;;;;;14.23;4.30;;;1.90;78.20;;;;;;5065990;28;20040;-84
2021/01/14 08:46:54;;;;;;;7.45;4.03;;;1.90;78.20;;;;;;5055835;28;20131;-81
2021/01/14 08:49:20;;;;;;;12.70;5.20;;;1.90;78.30;;;;;;5042585;28;20083;-86
2021/01/14 08:51:46;;;;;;;12.18;4.97;;;2.00;78.40;;;;;;5055465;28;20040;-88
2021/01/14 08:54:12;;;;;;;14.57;4.53;;;2.00;78.40;;;;;;5059080;28;20037;-76
2021/01/14 08:56:39;;;;;;;9.65;3.85;;;2.00;78.40;;;;;;5035915;28;20119;-77
2021/01/14 08:59:18;;;;;;;9.05;3.50;;;2.00;78.40;;;;;;5058228;28;20582;-83
2021/01/14 09:01:44;;;;;;;10.80;3.85;;;2.10;78.30;;;;;;5048458;28;20085;-80
2021/01/14 09:04:10;;;;;;;9.57;3.55;;;2.00;78.30;;;;;;5058251;28;20036;-81
2021/01/14 09:06:38;;;;;;;13.88;3.88;;;2.00;78.30;;;;;;5071813;28;20127;-81
2021/01/14 09:09:09;;;;;;;8.32;3.63;;;2.10;78.50;;;;;;5059157;28;20404;-82
2021/01/14 09:11:36;;;;;;;9.90;3.50;;;2.10;78.40;;;;;;5067507;28;20032;-84
2021/01/14 09:14:10;;;;;;;6.68;3.63;;;2.10;78.20;;;;;;5071937;28;20123;-80
2021/01/14 09:16:37;;;;;;;8.18;3.60;;;2.10;78.40;;;;;;5079968;28;20032;-80
2021/01/14 09:19:20;;;;;;;7.57;3.35;;;2.20;78.90;;;;;;5065880;28;20037;-75
2021/01/14 09:21:46;;;;;;;14.88;4.28;;;2.20;78.40;;;;;;5072888;28;20423;-75
2021/01/14 09:24:15;;;;;;;8.98;3.05;;;2.20;78.30;;;;;;5071284;28;20044;-75
2021/01/14 09:26:41;;;;;;;8.80;3.10;;;2.20;78.20;;;;;;5060819;28;20044;-75
2021/01/14 09:29:11;;;;;;;8.85;4.28;;;2.20;78.20;;;;;;5064996;28;20036;-81
2021/01/14 09:31:41;;;;;;;12.25;3.53;;;2.30;78.20;;;;;;5070577;28;20040;-82
2021/01/14 09:34:07;;;;;;;12.85;4.25;;;2.30;78.10;;;;;;5079572;28;20415;-81
2021/01/14 09:36:33;;;;;;;12.88;3.83;;;2.30;78.10;;;;;;5081987;28;20459;-81
2021/01/14 09:39:01;;;;;;;11.50;4.22;;;2.30;78.00;;;;;;5081456;28;20377;-82
2021/01/14 09:41:33;;;;;;;13.30;3.92;;;2.30;78.10;;;;;;5079086;28;20044;-82
2021/01/14 09:44:03;;;;;;;9.55;3.42;;;2.30;78.10;;;;;;5068685;28;20395;-82
2021/01/14 09:46:31;;;;;;;11.32;3.97;;;2.30;78.00;;;;;;5066317;28;20041;-84
2021/01/14 09:49:02;;;;;;;9.10;3.80;;;2.40;78.00;;;;;;5081157;28;20044;-83
2021/01/14 09:51:28;;;;;;;10.52;4.03;;;2.40;78.00;;;;;;5081268;28;20471;-82
2021/01/14 09:53:56;;;;;;;11.85;4.20;;;2.40;78.00;;;;;;5073047;28;20047;-81
2021/01/14 09:56:28;;;;;;;11.32;4.13;;;2.40;78.00;;;;;;5071142;28;20052;-81
2021/01/14 09:58:56;;;;;;;6.68;3.33;;;2.40;78.00;;;;;;5086648;28;20385;-81
2021/01/14 10:01:32;;;;;;;11.00;3.58;;;2.40;77.90;;;;;;5087358;28;20043;-80
2021/01/14 10:04:05;;;;;;;13.68;3.22;;;2.40;78.00;;;;;;5071146;28;20053;-83
2021/01/14 10:06:38;;;;;;;8.50;4.17;;;2.50;77.90;;;;;;5080442;28;20037;-82
2021/01/14 10:09:05;;;;;;;12.73;3.75;;;2.50;77.90;;;;;;5081652;28;20086;-83
2021/01/14 10:11:33;;;;;;;7.88;3.40;;;2.50;77.70;;;;;;5052369;28;20040;-74
2021/01/14 10:13:59;;;;;;;10.20;4.10;;;2.50;77.80;;;;;;5071895;28;20166;-74
2021/01/14 10:16:25;;;;;;;7.72;3.83;;;2.50;77.70;;;;;;5061648;28;20048;-74
2021/01/14 10:18:51;;;;;;;8.15;3.63;;;2.50;77.80;;;;;;5071043;28;20033;-74
2021/01/14 10:21:24;;;;;;;9.77;4.05;;;2.50;77.80;;;;;;5058589;28;21075;-74
2021/01/14 10:23:50;;;;;;;8.73;4.05;;;2.50;77.90;;;;;;5044574;28;20480;-75
2021/01/14 10:26:27;;;;;;;13.02;4.38;;;2.50;77.80;;;;;;5065355;28;20040;-75
2021/01/14 10:28:53;;;;;;;8.52;3.70;;;2.50;77.80;;;;;;5058788;28;20156;-75
2021/01/14 10:31:38;;;;;;;11.07;4.20;;;2.50;77.90;;;;;;5072523;28;20058;-75
2021/01/14 10:34:06;;;;;;;11.60;4.53;;;2.50;77.70;;;;;;5070970;28;20039;-75
2021/01/14 10:36:46;;;;;;;11.25;4.70;;;2.60;77.90;;;;;;5060605;28;20047;-76
2021/01/14 10:39:12;;;;;;;9.32;3.50;;;2.70;77.90;;;;;;5054110;28;20036;-74
2021/01/14 10:41:38;;;;;;;8.00;4.38;;;2.60;77.70;;;;;;5009749;28;20049;-74
2021/01/14 10:44:08;;;;;;;14.40;4.82;;;2.60;77.80;;;;;;5048294;28;20038;-74
2021/01/14 10:46:34;;;;;;;8.90;3.58;;;2.60;77.80;;;;;;5070526;28;20044;-74
2021/01/14 10:49:11;;;;;;;9.88;4.18;;;2.70;77.60;;;;;;5057283;28;20105;-75
2021/01/14 10:51:39;;;;;;;10.18;4.80;;;2.70;77.50;;;;;;5060683;28;20123;-75
2021/01/14 10:54:05;;;;;;;14.23;5.18;;;2.70;77.70;;;;;;5058197;28;20143;-75
2021/01/14 10:56:30;;;;;;;11.68;5.05;;;2.70;77.80;;;;;;5061941;28;20089;-75
2021/01/14 10:58:58;;;;;;;9.82;4.88;;;2.80;78.00;;;;;;5057078;28;20115;-75
2021/01/14 11:01:24;;;;;;;11.82;4.45;;;2.90;78.00;;;;;;5069460;28;20091;-74
2021/01/14 11:03:52;;;;;;;10.45;4.15;;;2.90;77.90;;;;;;5039748;28;20039;-77
2021/01/14 11:06:29;;;;;;;9.48;4.53;;;3.00;77.70;;;;;;5059348;28;20048;-76
2021/01/14 11:09:04;;;;;;;8.80;4.00;;;3.00;77.70;;;;;;5057762;28;20056;-76
2021/01/14 11:11:30;;;;;;;12.85;3.90;;;3.10;77.60;;;;;;5072092;28;20048;-77
2021/01/14 11:13:55;;;;;;;7.10;4.45;;;3.20;77.70;;;;;;5072732;28;20032;-77
2021/01/14 11:16:25;;;;;;;8.75;3.97;;;3.40;78.00;;;;;;5060408;28;20503;-77
2021/01/14 11:18:53;;;;;;;10.27;4.65;;;3.50;77.00;;;;;;5071283;28;20472;-76
2021/01/14 11:21:28;;;;;;;12.27;6.70;;;3.50;76.70;;;;;;5075776;28;20090;-77
2021/01/14 11:23:54;;;;;;;11.02;5.18;;;3.60;76.70;;;;;;5072445;28;20039;-77
2021/01/14 11:26:21;;;;;;;11.02;6.13;;;3.60;77.00;;;;;;5060550;28;20064;-77
2021/01/14 11:28:47;;;;;;;12.50;4.97;;;3.60;76.30;;;;;;5047172;28;20557;-76
2021/01/14 11:31:15;;;;;;;11.40;4.50;;;3.50;76.30;;;;;;5058490;28;20123;-74
2021/01/14 11:33:41;;;;;;;12.77;4.32;;;3.50;76.30;;;;;;5042638;28;20036;-75
2021/01/14 11:36:12;;;;;;;13.25;4.30;;;3.60;76.10;;;;;;5056606;28;20041;-75
2021/01/14 11:38:40;;;;;;;9.50;4.40;;;3.60;76.00;;;;;;5070227;28;20585;-78
2021/01/14 11:41:06;;;;;;;12.02;5.43;;;3.60;76.00;;;;;;5070618;28;20059;-77
2021/01/14 11:43:33;;;;;;;12.32;4.53;;;3.60;76.10;;;;;;5042764;28;20227;-76
2021/01/14 11:45:59;;;;;;;9.02;4.28;;;3.60;75.90;;;;;;5059357;28;20089;-76
2021/01/14 11:48:25;;;;;;;8.10;4.15;;;3.70;75.90;;;;;;5075434;28;20068;-81
2021/01/14 11:50:51;;;;;;;9.27;4.25;;;3.70;75.60;;;;;;5055092;28;20033;-78
2021/01/14 11:53:17;;;;;;;7.80;4.25;;;3.80;75.50;;;;;;5080218;28;20435;-77
2021/01/14 11:55:43;;;;;;;8.48;4.05;;;3.80;75.40;;;;;;5059052;28;20032;-83
2021/01/14 11:58:09;;;;;;;12.35;4.85;;;3.80;75.40;;;;;;5055903;28;20962;-85
2021/01/14 12:00:35;;;;;;;10.52;4.88;;;3.90;75.00;;;;;;5051226;28;20040;-84
2021/01/14 12:03:02;;;;;;;10.52;4.40;;;4.00;75.00;;;;;;5065319;28;20070;-83
2021/01/14 12:05:28;;;;;;;15.20;4.22;;;4.10;74.80;;;;;;5055308;28;20223;-81
2021/01/14 12:07:54;;;;;;;7.72;4.05;;;4.10;74.50;;;;;;5065195;28;20050;-85
2021/01/14 12:10:20;;;;;;;9.38;4.30;;;4.20;74.30;;;;;;5062169;28;20369;-83
2021/01/14 12:12:45;;;;;;;10.82;4.13;;;4.20;73.80;;;;;;5073502;28;20107;-82
2021/01/14 12:15:11;;;;;;;8.25;3.65;;;4.30;74.00;;;;;;5063102;28;20036;-86
2021/01/14 12:17:37;;;;;;;9.27;4.15;;;4.40;73.90;;;;;;5031112;28;20051;-86
2021/01/14 12:20:04;;;;;;;11.30;4.32;;;4.40;73.60;;;;;;5075041;28;20032;-85
2021/01/14 12:22:32;;;;;;;7.30;4.25;;;4.50;73.60;;;;;;5077433;28;20484;-85
2021/01/14 12:24:57;;;;;;;9.13;5.45;;;4.50;73.40;;;;;;5062491;28;20036;-85
2021/01/14 12:27:24;;;;;;;9.15;4.28;;;4.60;73.20;;;;;;5060682;28;20044;-84
2021/01/14 12:29:50;;;;;;;8.27;4.55;;;4.70;73.10;;;;;;5041960;28;20472;-83
2021/01/14 12:32:16;;;;;;;10.30;4.07;;;4.70;73.00;;;;;;5058252;28;20044;-83
2021/01/14 12:34:42;;;;;;;8.02;4.18;;;4.80;72.80;;;;;;5062627;28;20032;-84
2021/01/14 12:37:08;;;;;;;11.27;4.55;;;4.90;72.50;;;;;;5075005;28;20029;-83
2021/01/14 12:39:34;;;;;;;6.05;3.80;;;5.00;72.60;;;;;;5065379;28;20032;-83
2021/01/14 12:42:00;;;;;;;8.35;4.75;;;5.20;72.40;;;;;;5078668;28;20032;-85
2021/01/14 12:44:26;;;;;;;8.63;4.80;;;5.30;71.90;;;;;;5064434;28;20035;-84
2021/01/14 12:46:51;;;;;;;12.52;5.05;;;5.50;71.40;;;;;;5064832;28;20403;-84
2021/01/14 12:49:18;;;;;;;7.07;4.38;;;5.50;70.90;;;;;;5064391;28;20041;-82
2021/01/14 12:51:45;;;;;;;9.70;4.57;;;5.60;70.40;;;;;;5074959;28;20043;-83
2021/01/14 12:54:11;;;;;;;12.10;4.20;;;5.70;70.40;;;;;;5062311;28;20082;-81
2021/01/14 12:56:37;;;;;;;9.95;4.53;;;5.80;70.40;;;;;;5067588;28;20037;-81
2021/01/14 12:59:06;;;;;;;10.02;4.10;;;6.00;69.80;;;;;;5077123;28;20040;-81
2021/01/14 13:01:34;;;;;;;11.05;4.78;;;6.10;69.40;;;;;;5065519;28;20043;-80
2021/01/14 13:04:02;;;;;;;8.93;4.70;;;6.20;69.40;;;;;;5084963;28;20039;-81